sensor_id;sensor_type;location;lat;lon;timestamp;temperature;humidity
45643;DHT22;31358;46.008;11.144;2024-01-30T00:01:39;3.30;92.00
45643;DHT22;31358;46.008;11.144;2024-01-30T00:04:05;3.20;92.10
45643;DHT22;31358;46.008;11.144;2024-01-30T00:06:30;3.30;91.90
45643;DHT22;31358;46.008;11.144;2024-01-30T00:08:56;3.30;92.00
45643;DHT22;31358;46.008;11.144;2024-01-30T00:11:22;3.20;92.10
45643;DHT22;31358;46.008;11.144;2024-01-30T00:13:51;3.10;92.20
45643;DHT22;31358;46.008;11.144;2024-01-30T00:16:23;3.10;92.20
45643;DHT22;31358;46.008;11.144;2024-01-30T00:18:52;3.30;92.10
45643;DHT22;31358;46.008;11.144;2024-01-30T00:21:19;3.30;92.00
45643;DHT22;31358;46.008;11.144;2024-01-30T00:23:44;3.30;92.00
45643;DHT22;31358;46.008;11.144;2024-01-30T00:26:10;3.30;92.20
45643;DHT22;31358;46.008;11.144;2024-01-30T00:28:37;3.10;92.30
45643;DHT22;31358;46.008;11.144;2024-01-30T00:31:03;3.00;92.70
45643;DHT22;31358;46.008;11.144;2024-01-30T00:33:29;2.80;92.90
45643;DHT22;31358;46.008;11.144;2024-01-30T00:35:55;2.90;92.60
45643;DHT22;31358;46.008;11.144;2024-01-30T00:38:20;3.10;92.40
45643;DHT22;31358;46.008;11.144;2024-01-30T00:40:46;3.20;92.20
45643;DHT22;31358;46.008;11.144;2024-01-30T00:43:12;3.40;91.90
45643;DHT22;31358;46.008;11.144;2024-01-30T00:45:37;3.40;91.80
45643;DHT22;31358;46.008;11.144;2024-01-30T00:48:03;3.40;91.90
45643;DHT22;31358;46.008;11.144;2024-01-30T00:50:29;3.30;92.00
45643;DHT22;31358;46.008;11.144;2024-01-30T00:52:55;3.30;92.20
45643;DHT22;31358;46.008;11.144;2024-01-30T00:55:21;3.10;92.20
45643;DHT22;31358;46.008;11.144;2024-01-30T00:57:46;3.00;92.30
45643;DHT22;31358;46.008;11.144;2024-01-30T01:00:13;3.00;92.40
45643;DHT22;31358;46.008;11.144;2024-01-30T01:02:42;3.00;92.40
45643;DHT22;31358;46.008;11.144;2024-01-30T01:05:08;3.00;92.60
45643;DHT22;31358;46.008;11.144;2024-01-30T01:07:34;2.80;93.30
45643;DHT22;31358;46.008;11.144;2024-01-30T01:09:59;2.70;93.10
45643;DHT22;31358;46.008;11.144;2024-01-30T01:12:25;2.60;93.10
45643;DHT22;31358;46.008;11.144;2024-01-30T01:14:51;2.70;93.10
45643;DHT22;31358;46.008;11.144;2024-01-30T01:17:16;2.80;92.90
45643;DHT22;31358;46.008;11.144;2024-01-30T01:19:44;2.80;92.90
45643;DHT22;31358;46.008;11.144;2024-01-30T01:22:09;3.00;92.70
45643;DHT22;31358;46.008;11.144;2024-01-30T01:24:35;3.20;92.50
45643;DHT22;31358;46.008;11.144;2024-01-30T01:27:01;3.10;92.70
45643;DHT22;31358;46.008;11.144;2024-01-30T01:29:27;3.20;92.40
45643;DHT22;31358;46.008;11.144;2024-01-30T01:31:57;3.20;92.30
45643;DHT22;31358;46.008;11.144;2024-01-30T01:34:23;3.10;92.40
45643;DHT22;31358;46.008;11.144;2024-01-30T01:36:52;3.20;92.40
45643;DHT22;31358;46.008;11.144;2024-01-30T01:39:21;3.10;92.30
45643;DHT22;31358;46.008;11.144;2024-01-30T01:41:48;3.20;92.30
45643;DHT22;31358;46.008;11.144;2024-01-30T01:44:14;3.10;92.50
45643;DHT22;31358;46.008;11.144;2024-01-30T01:46:39;3.10;92.30
45643;DHT22;31358;46.008;11.144;2024-01-30T01:49:05;3.10;92.30
45643;DHT22;31358;46.008;11.144;2024-01-30T01:51:33;2.80;92.60
45643;DHT22;31358;46.008;11.144;2024-01-30T01:54:02;2.70;92.90
45643;DHT22;31358;46.008;11.144;2024-01-30T01:56:29;2.90;92.80
45643;DHT22;31358;46.008;11.144;2024-01-30T01:58:59;2.90;92.70
45643;DHT22;31358;46.008;11.144;2024-01-30T02:01:25;2.90;92.80
45643;DHT22;31358;46.008;11.144;2024-01-30T02:03:52;2.70;93.20
45643;DHT22;31358;46.008;11.144;2024-01-30T02:06:18;2.50;93.70
45643;DHT22;31358;46.008;11.144;2024-01-30T02:08:44;2.30;93.90
45643;DHT22;31358;46.008;11.144;2024-01-30T02:11:10;2.20;94.20
45643;DHT22;31358;46.008;11.144;2024-01-30T02:13:36;2.10;94.20
45643;DHT22;31358;46.008;11.144;2024-01-30T02:16:02;2.10;93.90
45643;DHT22;31358;46.008;11.144;2024-01-30T02:18:28;2.20;93.80
45643;DHT22;31358;46.008;11.144;2024-01-30T02:20:56;2.40;93.70
45643;DHT22;31358;46.008;11.144;2024-01-30T02:23:26;2.50;93.40
45643;DHT22;31358;46.008;11.144;2024-01-30T02:25:52;2.60;93.30
45643;DHT22;31358;46.008;11.144;2024-01-30T02:28:18;2.60;93.60
45643;DHT22;31358;46.008;11.144;2024-01-30T02:30:45;2.40;93.90
45643;DHT22;31358;46.008;11.144;2024-01-30T02:33:11;2.40;93.70
45643;DHT22;31358;46.008;11.144;2024-01-30T02:35:37;2.50;93.60
45643;DHT22;31358;46.008;11.144;2024-01-30T02:38:03;2.60;93.40
45643;DHT22;31358;46.008;11.144;2024-01-30T02:40:28;2.70;93.30
45643;DHT22;31358;46.008;11.144;2024-01-30T02:42:54;2.60;93.40
45643;DHT22;31358;46.008;11.144;2024-01-30T02:45:20;2.60;93.30
45643;DHT22;31358;46.008;11.144;2024-01-30T02:47:46;2.60;93.30
45643;DHT22;31358;46.008;11.144;2024-01-30T02:50:12;2.60;93.30
45643;DHT22;31358;46.008;11.144;2024-01-30T02:52:37;2.40;93.40
45643;DHT22;31358;46.008;11.144;2024-01-30T02:55:03;2.30;93.70
45643;DHT22;31358;46.008;11.144;2024-01-30T02:57:29;2.20;94.10
45643;DHT22;31358;46.008;11.144;2024-01-30T02:59:55;2.30;94.00
45643;DHT22;31358;46.008;11.144;2024-01-30T03:02:21;2.40;93.80
45643;DHT22;31358;46.008;11.144;2024-01-30T03:04:47;2.30;93.80
45643;DHT22;31358;46.008;11.144;2024-01-30T03:07:13;2.20;94.20
45643;DHT22;31358;46.008;11.144;2024-01-30T03:09:39;2.20;94.30
45643;DHT22;31358;46.008;11.144;2024-01-30T03:12:06;2.20;94.30
45643;DHT22;31358;46.008;11.144;2024-01-30T03:14:32;2.10;94.20
45643;DHT22;31358;46.008;11.144;2024-01-30T03:16:58;2.00;94.70
45643;DHT22;31358;46.008;11.144;2024-01-30T03:19:24;1.90;95.00
45643;DHT22;31358;46.008;11.144;2024-01-30T03:21:50;2.10;94.60
45643;DHT22;31358;46.008;11.144;2024-01-30T03:24:16;2.30;94.00
45643;DHT22;31358;46.008;11.144;2024-01-30T03:26:43;2.40;93.70
45643;DHT22;31358;46.008;11.144;2024-01-30T03:29:09;2.60;93.50
45643;DHT22;31358;46.008;11.144;2024-01-30T03:31:34;2.30;93.80
45643;DHT22;31358;46.008;11.144;2024-01-30T03:34:01;2.00;94.50
45643;DHT22;31358;46.008;11.144;2024-01-30T03:36:27;1.80;94.90
45643;DHT22;31358;46.008;11.144;2024-01-30T03:38:52;1.80;95.00
45643;DHT22;31358;46.008;11.144;2024-01-30T03:41:18;1.70;95.30
45643;DHT22;31358;46.008;11.144;2024-01-30T03:43:44;1.80;95.00
45643;DHT22;31358;46.008;11.144;2024-01-30T03:46:12;2.00;94.60
45643;DHT22;31358;46.008;11.144;2024-01-30T03:48:37;2.10;94.60
45643;DHT22;31358;46.008;11.144;2024-01-30T03:51:04;2.10;94.70
45643;DHT22;31358;46.008;11.144;2024-01-30T03:53:30;2.10;94.60
45643;DHT22;31358;46.008;11.144;2024-01-30T03:55:55;2.10;94.40
45643;DHT22;31358;46.008;11.144;2024-01-30T03:58:21;2.10;94.30
45643;DHT22;31358;46.008;11.144;2024-01-30T04:00:47;2.30;94.40
45643;DHT22;31358;46.008;11.144;2024-01-30T04:03:14;2.40;94.10
45643;DHT22;31358;46.008;11.144;2024-01-30T04:05:41;2.20;94.20
45643;DHT22;31358;46.008;11.144;2024-01-30T04:08:07;2.10;94.50
45643;DHT22;31358;46.008;11.144;2024-01-30T04:10:33;2.00;94.70
45643;DHT22;31358;46.008;11.144;2024-01-30T04:12:59;2.00;94.80
45643;DHT22;31358;46.008;11.144;2024-01-30T04:15:25;2.10;94.60
45643;DHT22;31358;46.008;11.144;2024-01-30T04:17:51;2.10;94.60
45643;DHT22;31358;46.008;11.144;2024-01-30T04:20:17;2.00;94.60
45643;DHT22;31358;46.008;11.144;2024-01-30T04:22:43;2.00;95.10
45643;DHT22;31358;46.008;11.144;2024-01-30T04:25:10;1.90;95.30
45643;DHT22;31358;46.008;11.144;2024-01-30T04:27:35;1.80;95.50
45643;DHT22;31358;46.008;11.144;2024-01-30T04:30:01;1.60;95.20
45643;DHT22;31358;46.008;11.144;2024-01-30T04:32:27;1.50;95.50
45643;DHT22;31358;46.008;11.144;2024-01-30T04:34:52;1.60;95.90
45643;DHT22;31358;46.008;11.144;2024-01-30T04:37:18;1.30;96.30
45643;DHT22;31358;46.008;11.144;2024-01-30T04:39:44;1.50;96.00
45643;DHT22;31358;46.008;11.144;2024-01-30T04:42:09;1.70;95.60
45643;DHT22;31358;46.008;11.144;2024-01-30T04:44:35;1.90;95.40
45643;DHT22;31358;46.008;11.144;2024-01-30T04:47:01;1.90;95.20
45643;DHT22;31358;46.008;11.144;2024-01-30T04:49:27;1.90;95.40
45643;DHT22;31358;46.008;11.144;2024-01-30T04:51:54;1.80;95.40
45643;DHT22;31358;46.008;11.144;2024-01-30T04:54:20;1.80;95.30
45643;DHT22;31358;46.008;11.144;2024-01-30T04:56:45;1.80;95.60
45643;DHT22;31358;46.008;11.144;2024-01-30T04:59:12;1.80;95.20
45643;DHT22;31358;46.008;11.144;2024-01-30T05:01:37;1.70;95.20
45643;DHT22;31358;46.008;11.144;2024-01-30T05:04:03;1.60;95.60
45643;DHT22;31358;46.008;11.144;2024-01-30T05:06:29;1.60;95.50
45643;DHT22;31358;46.008;11.144;2024-01-30T05:08:55;1.80;95.40
45643;DHT22;31358;46.008;11.144;2024-01-30T05:11:21;1.90;95.10
45643;DHT22;31358;46.008;11.144;2024-01-30T05:13:47;1.90;95.10
45643;DHT22;31358;46.008;11.144;2024-01-30T05:16:13;1.80;95.40
45643;DHT22;31358;46.008;11.144;2024-01-30T05:18:38;1.80;95.20
45643;DHT22;31358;46.008;11.144;2024-01-30T05:21:05;1.90;95.10
45643;DHT22;31358;46.008;11.144;2024-01-30T05:23:31;1.90;95.10
45643;DHT22;31358;46.008;11.144;2024-01-30T05:25:56;1.80;95.20
45643;DHT22;31358;46.008;11.144;2024-01-30T05:28:22;1.70;95.30
45643;DHT22;31358;46.008;11.144;2024-01-30T05:30:48;1.60;95.30
45643;DHT22;31358;46.008;11.144;2024-01-30T05:33:13;1.50;95.50
45643;DHT22;31358;46.008;11.144;2024-01-30T05:35:39;1.60;95.60
45643;DHT22;31358;46.008;11.144;2024-01-30T05:38:05;1.50;95.70
45643;DHT22;31358;46.008;11.144;2024-01-30T05:40:30;1.40;95.80
45643;DHT22;31358;46.008;11.144;2024-01-30T05:42:57;1.60;95.60
45643;DHT22;31358;46.008;11.144;2024-01-30T05:45:26;1.70;95.50
45643;DHT22;31358;46.008;11.144;2024-01-30T05:47:52;1.60;95.90
45643;DHT22;31358;46.008;11.144;2024-01-30T05:50:18;1.50;95.90
45643;DHT22;31358;46.008;11.144;2024-01-30T05:52:44;1.50;95.80
45643;DHT22;31358;46.008;11.144;2024-01-30T05:55:11;1.50;96.00
45643;DHT22;31358;46.008;11.144;2024-01-30T05:57:37;1.70;95.70
45643;DHT22;31358;46.008;11.144;2024-01-30T06:00:04;1.70;95.60
45643;DHT22;31358;46.008;11.144;2024-01-30T06:02:30;1.80;95.30
45643;DHT22;31358;46.008;11.144;2024-01-30T06:04:56;1.60;95.70
45643;DHT22;31358;46.008;11.144;2024-01-30T06:07:22;1.40;95.80
45643;DHT22;31358;46.008;11.144;2024-01-30T06:09:47;1.40;95.90
45643;DHT22;31358;46.008;11.144;2024-01-30T06:12:13;1.30;95.90
45643;DHT22;31358;46.008;11.144;2024-01-30T06:14:39;1.40;95.90
45643;DHT22;31358;46.008;11.144;2024-01-30T06:17:08;1.30;96.10
45643;DHT22;31358;46.008;11.144;2024-01-30T06:19:33;1.40;96.10
45643;DHT22;31358;46.008;11.144;2024-01-30T06:21:59;1.50;96.00
45643;DHT22;31358;46.008;11.144;2024-01-30T06:24:25;1.40;96.10
45643;DHT22;31358;46.008;11.144;2024-01-30T06:26:51;1.40;96.40
45643;DHT22;31358;46.008;11.144;2024-01-30T06:29:16;1.50;96.10
45643;DHT22;31358;46.008;11.144;2024-01-30T06:31:42;1.50;96.20
45643;DHT22;31358;46.008;11.144;2024-01-30T06:34:11;1.40;96.40
45643;DHT22;31358;46.008;11.144;2024-01-30T06:36:37;1.50;96.20
45643;DHT22;31358;46.008;11.144;2024-01-30T06:39:03;1.50;96.20
45643;DHT22;31358;46.008;11.144;2024-01-30T06:41:29;1.60;95.60
45643;DHT22;31358;46.008;11.144;2024-01-30T06:43:55;1.80;95.50
45643;DHT22;31358;46.008;11.144;2024-01-30T06:46:21;1.70;95.60
45643;DHT22;31358;46.008;11.144;2024-01-30T06:48:47;1.60;95.60
45643;DHT22;31358;46.008;11.144;2024-01-30T06:51:12;1.60;95.40
45643;DHT22;31358;46.008;11.144;2024-01-30T06:53:38;1.50;95.80
45643;DHT22;31358;46.008;11.144;2024-01-30T06:56:04;1.60;95.90
45643;DHT22;31358;46.008;11.144;2024-01-30T06:58:30;1.60;95.80
45643;DHT22;31358;46.008;11.144;2024-01-30T07:00:56;1.60;95.90
45643;DHT22;31358;46.008;11.144;2024-01-30T07:03:22;1.70;95.70
45643;DHT22;31358;46.008;11.144;2024-01-30T07:05:48;1.70;96.10
45643;DHT22;31358;46.008;11.144;2024-01-30T07:08:15;1.90;95.80
45643;DHT22;31358;46.008;11.144;2024-01-30T07:10:43;1.90;95.50
45643;DHT22;31358;46.008;11.144;2024-01-30T07:13:09;1.80;95.80
45643;DHT22;31358;46.008;11.144;2024-01-30T07:15:35;1.70;95.80
45643;DHT22;31358;46.008;11.144;2024-01-30T07:18:02;1.60;96.10
45643;DHT22;31358;46.008;11.144;2024-01-30T07:20:28;1.50;96.20
45643;DHT22;31358;46.008;11.144;2024-01-30T07:22:55;1.40;96.50
45643;DHT22;31358;46.008;11.144;2024-01-30T07:25:21;1.30;96.80
45643;DHT22;31358;46.008;11.144;2024-01-30T07:27:55;1.40;96.80
45643;DHT22;31358;46.008;11.144;2024-01-30T07:30:21;1.30;96.80
45643;DHT22;31358;46.008;11.144;2024-01-30T07:32:47;1.20;97.00
45643;DHT22;31358;46.008;11.144;2024-01-30T07:35:13;1.30;96.80
45643;DHT22;31358;46.008;11.144;2024-01-30T07:37:39;1.60;97.60
45643;DHT22;31358;46.008;11.144;2024-01-30T07:40:05;1.60;96.50
45643;DHT22;31358;46.008;11.144;2024-01-30T07:42:32;1.60;96.50
45643;DHT22;31358;46.008;11.144;2024-01-30T07:44:58;1.60;96.90
45643;DHT22;31358;46.008;11.144;2024-01-30T07:47:24;1.60;97.30
45643;DHT22;31358;46.008;11.144;2024-01-30T07:49:49;1.50;97.20
45643;DHT22;31358;46.008;11.144;2024-01-30T07:52:15;1.50;97.20
45643;DHT22;31358;46.008;11.144;2024-01-30T07:54:50;1.50;96.50
45643;DHT22;31358;46.008;11.144;2024-01-30T07:57:16;1.50;96.70
45643;DHT22;31358;46.008;11.144;2024-01-30T07:59:43;1.50;97.20
45643;DHT22;31358;46.008;11.144;2024-01-30T08:02:10;1.50;97.10
45643;DHT22;31358;46.008;11.144;2024-01-30T08:04:36;1.60;97.00
45643;DHT22;31358;46.008;11.144;2024-01-30T08:07:01;1.60;96.60
45643;DHT22;31358;46.008;11.144;2024-01-30T08:09:27;1.50;97.10
45643;DHT22;31358;46.008;11.144;2024-01-30T08:11:53;1.60;96.80
45643;DHT22;31358;46.008;11.144;2024-01-30T08:14:19;2.00;97.30
45643;DHT22;31358;46.008;11.144;2024-01-30T08:16:44;1.90;96.50
45643;DHT22;31358;46.008;11.144;2024-01-30T08:19:10;1.90;96.40
45643;DHT22;31358;46.008;11.144;2024-01-30T08:21:36;1.90;97.20
45643;DHT22;31358;46.008;11.144;2024-01-30T08:24:05;1.80;97.00
45643;DHT22;31358;46.008;11.144;2024-01-30T08:26:35;1.90;97.10
45643;DHT22;31358;46.008;11.144;2024-01-30T08:29:01;1.80;97.50
45643;DHT22;31358;46.008;11.144;2024-01-30T08:31:27;1.90;97.10
45643;DHT22;31358;46.008;11.144;2024-01-30T08:33:53;1.70;97.30
45643;DHT22;31358;46.008;11.144;2024-01-30T08:36:20;1.70;97.40
45643;DHT22;31358;46.008;11.144;2024-01-30T08:38:46;2.10;98.20
45643;DHT22;31358;46.008;11.144;2024-01-30T08:41:12;2.00;97.50
45643;DHT22;31358;46.008;11.144;2024-01-30T08:43:38;1.90;97.50
45643;DHT22;31358;46.008;11.144;2024-01-30T08:46:03;1.90;98.20
45643;DHT22;31358;46.008;11.144;2024-01-30T08:48:29;1.80;97.60
45643;DHT22;31358;46.008;11.144;2024-01-30T08:50:55;1.80;97.70
45643;DHT22;31358;46.008;11.144;2024-01-30T08:53:20;1.70;97.50
45643;DHT22;31358;46.008;11.144;2024-01-30T08:55:46;1.80;97.20
45643;DHT22;31358;46.008;11.144;2024-01-30T08:58:12;1.90;96.90
45643;DHT22;31358;46.008;11.144;2024-01-30T09:00:38;1.90;96.90
45643;DHT22;31358;46.008;11.144;2024-01-30T09:03:04;2.00;96.90
45643;DHT22;31358;46.008;11.144;2024-01-30T09:05:29;2.00;96.60
45643;DHT22;31358;46.008;11.144;2024-01-30T09:07:55;2.00;96.60
45643;DHT22;31358;46.008;11.144;2024-01-30T09:10:21;2.10;96.90
45643;DHT22;31358;46.008;11.144;2024-01-30T09:12:47;2.20;96.50
45643;DHT22;31358;46.008;11.144;2024-01-30T09:15:13;2.20;96.50
45643;DHT22;31358;46.008;11.144;2024-01-30T09:17:39;2.20;96.40
45643;DHT22;31358;46.008;11.144;2024-01-30T09:20:05;2.30;96.40
45643;DHT22;31358;46.008;11.144;2024-01-30T09:22:31;2.30;96.00
45643;DHT22;31358;46.008;11.144;2024-01-30T09:24:57;2.30;95.90
45643;DHT22;31358;46.008;11.144;2024-01-30T09:27:23;2.30;96.00
45643;DHT22;31358;46.008;11.144;2024-01-30T09:29:49;2.60;98.00
45643;DHT22;31358;46.008;11.144;2024-01-30T09:32:15;2.50;97.10
45643;DHT22;31358;46.008;11.144;2024-01-30T09:34:40;2.40;96.40
45643;DHT22;31358;46.008;11.144;2024-01-30T09:37:07;2.50;96.30
45643;DHT22;31358;46.008;11.144;2024-01-30T09:39:33;2.40;96.30
45643;DHT22;31358;46.008;11.144;2024-01-30T09:42:34;2.30;96.40
45643;DHT22;31358;46.008;11.144;2024-01-30T09:45:04;2.40;96.10
45643;DHT22;31358;46.008;11.144;2024-01-30T09:47:41;2.60;95.90
45643;DHT22;31358;46.008;11.144;2024-01-30T09:50:11;2.60;96.00
45643;DHT22;31358;46.008;11.144;2024-01-30T09:52:37;2.70;96.40
45643;DHT22;31358;46.008;11.144;2024-01-30T09:55:06;2.60;96.50
45643;DHT22;31358;46.008;11.144;2024-01-30T09:57:32;2.70;96.20
45643;DHT22;31358;46.008;11.144;2024-01-30T09:59:58;2.70;96.20
45643;DHT22;31358;46.008;11.144;2024-01-30T10:02:23;2.70;96.50
45643;DHT22;31358;46.008;11.144;2024-01-30T10:04:52;2.70;96.00
45643;DHT22;31358;46.008;11.144;2024-01-30T10:07:18;2.70;95.60
45643;DHT22;31358;46.008;11.144;2024-01-30T10:09:45;2.90;95.60
45643;DHT22;31358;46.008;11.144;2024-01-30T10:12:11;3.00;95.70
45643;DHT22;31358;46.008;11.144;2024-01-30T10:14:41;3.20;95.80
45643;DHT22;31358;46.008;11.144;2024-01-30T10:17:11;3.30;95.50
45643;DHT22;31358;46.008;11.144;2024-01-30T10:19:40;3.40;95.30
45643;DHT22;31358;46.008;11.144;2024-01-30T10:22:09;3.60;94.90
45643;DHT22;31358;46.008;11.144;2024-01-30T10:24:35;3.70;95.10
45643;DHT22;31358;46.008;11.144;2024-01-30T10:27:01;3.70;95.30
45643;DHT22;31358;46.008;11.144;2024-01-30T10:29:27;3.70;95.90
45643;DHT22;31358;46.008;11.144;2024-01-30T10:32:04;3.70;95.40
45643;DHT22;31358;46.008;11.144;2024-01-30T10:34:30;3.80;95.00
45643;DHT22;31358;46.008;11.144;2024-01-30T10:37:08;3.90;95.00
45643;DHT22;31358;46.008;11.144;2024-01-30T10:39:45;3.90;95.10
45643;DHT22;31358;46.008;11.144;2024-01-30T10:42:18;4.00;95.70
45643;DHT22;31358;46.008;11.144;2024-01-30T10:47:21;4.10;95.70
45643;DHT22;31358;46.008;11.144;2024-01-30T10:49:49;4.20;95.80
45643;DHT22;31358;46.008;11.144;2024-01-30T10:52:17;4.20;96.00
45643;DHT22;31358;46.008;11.144;2024-01-30T10:54:44;4.30;95.90
45643;DHT22;31358;46.008;11.144;2024-01-30T10:57:11;4.40;95.80
45643;DHT22;31358;46.008;11.144;2024-01-30T10:59:38;4.40;96.10
45643;DHT22;31358;46.008;11.144;2024-01-30T11:02:05;4.40;95.10
45643;DHT22;31358;46.008;11.144;2024-01-30T11:04:38;4.60;95.20
45643;DHT22;31358;46.008;11.144;2024-01-30T11:07:16;4.90;95.10
45643;DHT22;31358;46.008;11.144;2024-01-30T11:09:50;4.90;94.70
45643;DHT22;31358;46.008;11.144;2024-01-30T11:12:16;4.90;94.60
45643;DHT22;31358;46.008;11.144;2024-01-30T11:14:42;5.00;94.40
45643;DHT22;31358;46.008;11.144;2024-01-30T11:17:10;5.10;94.40
45643;DHT22;31358;46.008;11.144;2024-01-30T11:19:38;5.30;94.30
45643;DHT22;31358;46.008;11.144;2024-01-30T11:22:06;5.40;94.00
45643;DHT22;31358;46.008;11.144;2024-01-30T11:24:41;5.40;94.00
45643;DHT22;31358;46.008;11.144;2024-01-30T11:27:10;5.40;93.70
45643;DHT22;31358;46.008;11.144;2024-01-30T11:29:36;5.40;93.90
45643;DHT22;31358;46.008;11.144;2024-01-30T11:32:02;5.70;94.10
45643;DHT22;31358;46.008;11.144;2024-01-30T11:34:28;5.80;93.90
45643;DHT22;31358;46.008;11.144;2024-01-30T11:36:59;5.70;93.50
45643;DHT22;31358;46.008;11.144;2024-01-30T11:39:29;5.90;94.00
45643;DHT22;31358;46.008;11.144;2024-01-30T11:41:55;6.20;93.70
45643;DHT22;31358;46.008;11.144;2024-01-30T11:44:22;6.30;93.30
45643;DHT22;31358;46.008;11.144;2024-01-30T11:46:48;6.40;93.40
45643;DHT22;31358;46.008;11.144;2024-01-30T11:49:14;6.60;93.20
45643;DHT22;31358;46.008;11.144;2024-01-30T11:51:40;6.70;93.10
45643;DHT22;31358;46.008;11.144;2024-01-30T11:54:07;6.50;92.70
45643;DHT22;31358;46.008;11.144;2024-01-30T11:56:33;6.50;92.80
45643;DHT22;31358;46.008;11.144;2024-01-30T11:58:58;6.60;93.20
45643;DHT22;31358;46.008;11.144;2024-01-30T12:01:26;6.60;92.70
45643;DHT22;31358;46.008;11.144;2024-01-30T12:03:52;6.80;92.90
45643;DHT22;31358;46.008;11.144;2024-01-30T12:06:18;6.90;92.50
45643;DHT22;31358;46.008;11.144;2024-01-30T12:08:57;7.00;92.50
45643;DHT22;31358;46.008;11.144;2024-01-30T12:11:24;7.00;92.50
45643;DHT22;31358;46.008;11.144;2024-01-30T12:13:51;7.00;91.90
45643;DHT22;31358;46.008;11.144;2024-01-30T12:16:18;7.10;92.10
45643;DHT22;31358;46.008;11.144;2024-01-30T12:18:44;7.30;92.10
45643;DHT22;31358;46.008;11.144;2024-01-30T12:21:09;7.30;91.80
45643;DHT22;31358;46.008;11.144;2024-01-30T12:23:35;7.40;91.50
45643;DHT22;31358;46.008;11.144;2024-01-30T12:26:01;7.30;90.90
45643;DHT22;31358;46.008;11.144;2024-01-30T12:28:29;7.50;91.90
45643;DHT22;31358;46.008;11.144;2024-01-30T12:31:01;7.50;91.40
45643;DHT22;31358;46.008;11.144;2024-01-30T12:33:28;7.30;91.10
45643;DHT22;31358;46.008;11.144;2024-01-30T12:35:54;7.10;90.70
45643;DHT22;31358;46.008;11.144;2024-01-30T12:38:20;7.20;90.80
45643;DHT22;31358;46.008;11.144;2024-01-30T12:40:46;7.30;91.10
45643;DHT22;31358;46.008;11.144;2024-01-30T12:43:13;7.30;90.80
45643;DHT22;31358;46.008;11.144;2024-01-30T12:45:40;7.30;90.60
45643;DHT22;31358;46.008;11.144;2024-01-30T12:48:06;7.50;90.70
45643;DHT22;31358;46.008;11.144;2024-01-30T12:50:32;7.70;91.10
45643;DHT22;31358;46.008;11.144;2024-01-30T12:52:58;7.80;90.10
45643;DHT22;31358;46.008;11.144;2024-01-30T12:55:24;7.80;90.10
45643;DHT22;31358;46.008;11.144;2024-01-30T12:57:52;7.90;90.10
45643;DHT22;31358;46.008;11.144;2024-01-30T13:00:17;8.00;90.00
45643;DHT22;31358;46.008;11.144;2024-01-30T13:02:43;7.90;89.60
45643;DHT22;31358;46.008;11.144;2024-01-30T13:05:10;8.10;90.40
45643;DHT22;31358;46.008;11.144;2024-01-30T13:07:35;8.10;90.00
45643;DHT22;31358;46.008;11.144;2024-01-30T13:10:02;8.10;89.30
45643;DHT22;31358;46.008;11.144;2024-01-30T13:12:29;8.00;89.40
45643;DHT22;31358;46.008;11.144;2024-01-30T13:14:55;8.00;89.30
45643;DHT22;31358;46.008;11.144;2024-01-30T13:17:21;8.10;89.80
45643;DHT22;31358;46.008;11.144;2024-01-30T13:19:46;8.20;89.30
45643;DHT22;31358;46.008;11.144;2024-01-30T13:22:15;8.10;88.40
45643;DHT22;31358;46.008;11.144;2024-01-30T13:24:40;8.10;88.40
45643;DHT22;31358;46.008;11.144;2024-01-30T13:27:07;8.00;88.70
45643;DHT22;31358;46.008;11.144;2024-01-30T13:29:33;8.10;89.30
45643;DHT22;31358;46.008;11.144;2024-01-30T13:31:58;8.30;89.40
45643;DHT22;31358;46.008;11.144;2024-01-30T13:34:24;8.30;89.40
45643;DHT22;31358;46.008;11.144;2024-01-30T13:36:50;8.30;88.70
45643;DHT22;31358;46.008;11.144;2024-01-30T13:39:16;8.30;89.00
45643;DHT22;31358;46.008;11.144;2024-01-30T13:41:42;8.30;87.90
45643;DHT22;31358;46.008;11.144;2024-01-30T13:44:08;8.40;88.90
45643;DHT22;31358;46.008;11.144;2024-01-30T13:46:35;8.50;87.90
45643;DHT22;31358;46.008;11.144;2024-01-30T13:49:01;8.60;88.10
45643;DHT22;31358;46.008;11.144;2024-01-30T13:51:28;8.70;87.40
45643;DHT22;31358;46.008;11.144;2024-01-30T13:53:53;8.60;86.50
45643;DHT22;31358;46.008;11.144;2024-01-30T13:56:20;8.70;88.00
45643;DHT22;31358;46.008;11.144;2024-01-30T13:58:48;8.50;87.60
45643;DHT22;31358;46.008;11.144;2024-01-30T14:01:14;8.60;87.90
45643;DHT22;31358;46.008;11.144;2024-01-30T14:03:40;8.70;87.80
45643;DHT22;31358;46.008;11.144;2024-01-30T14:06:05;8.70;87.10
45643;DHT22;31358;46.008;11.144;2024-01-30T14:08:31;8.60;87.50
45643;DHT22;31358;46.008;11.144;2024-01-30T14:10:58;8.50;87.30
45643;DHT22;31358;46.008;11.144;2024-01-30T14:13:24;8.60;87.20
45643;DHT22;31358;46.008;11.144;2024-01-30T14:15:51;8.70;87.10
45643;DHT22;31358;46.008;11.144;2024-01-30T14:18:17;8.80;87.10
45643;DHT22;31358;46.008;11.144;2024-01-30T14:20:43;8.80;87.30
45643;DHT22;31358;46.008;11.144;2024-01-30T14:23:09;8.80;87.30
45643;DHT22;31358;46.008;11.144;2024-01-30T14:25:35;9.00;88.40
45643;DHT22;31358;46.008;11.144;2024-01-30T14:28:00;8.80;87.90
45643;DHT22;31358;46.008;11.144;2024-01-30T14:30:26;8.70;87.40
45643;DHT22;31358;46.008;11.144;2024-01-30T14:32:52;8.70;87.50
45643;DHT22;31358;46.008;11.144;2024-01-30T14:35:17;8.60;87.50
45643;DHT22;31358;46.008;11.144;2024-01-30T14:37:44;8.70;88.70
45643;DHT22;31358;46.008;11.144;2024-01-30T14:40:10;8.70;88.50
45643;DHT22;31358;46.008;11.144;2024-01-30T14:42:36;8.70;89.10
45643;DHT22;31358;46.008;11.144;2024-01-30T14:45:03;8.70;89.10
45643;DHT22;31358;46.008;11.144;2024-01-30T14:47:29;8.60;89.00
45643;DHT22;31358;46.008;11.144;2024-01-30T14:49:56;8.50;88.90
45643;DHT22;31358;46.008;11.144;2024-01-30T14:52:22;8.40;89.00
45643;DHT22;31358;46.008;11.144;2024-01-30T14:54:48;8.30;89.30
45643;DHT22;31358;46.008;11.144;2024-01-30T14:57:13;8.30;89.00
45643;DHT22;31358;46.008;11.144;2024-01-30T14:59:40;8.20;88.60
45643;DHT22;31358;46.008;11.144;2024-01-30T15:02:06;8.30;89.00
45643;DHT22;31358;46.008;11.144;2024-01-30T15:04:31;8.30;89.30
45643;DHT22;31358;46.008;11.144;2024-01-30T15:06:57;8.20;90.00
45643;DHT22;31358;46.008;11.144;2024-01-30T15:09:23;8.20;90.00
45643;DHT22;31358;46.008;11.144;2024-01-30T15:11:49;8.10;90.20
45643;DHT22;31358;46.008;11.144;2024-01-30T15:14:15;8.00;90.30
45643;DHT22;31358;46.008;11.144;2024-01-30T15:16:41;8.00;90.10
45643;DHT22;31358;46.008;11.144;2024-01-30T15:19:08;8.10;90.10
45643;DHT22;31358;46.008;11.144;2024-01-30T15:21:33;7.90;89.70
45643;DHT22;31358;46.008;11.144;2024-01-30T15:23:59;7.90;90.20
45643;DHT22;31358;46.008;11.144;2024-01-30T15:26:25;7.90;90.70
45643;DHT22;31358;46.008;11.144;2024-01-30T15:28:51;7.90;90.40